Terminal Aerodrome Forecast
Issued by NWS

Home | Current Version | Previous Version | Text Only | Print | Product List | Glossary Off
Versions: 1 2 3 4 5 6 7 8 9 10 11 12 13 14 15 16 17 18 19 20 21 22 23 24 25

004
FTUS43 KICT 152342
TAFCNU
TAF
KCNU 152342Z 1600/1624 12006KT P6SM BKN200
     FM160100 13006KT P6SM VCTS BKN070CB OVC150
     FM161300 18011KT P6SM VCTS OVC015CB
     FM161700 20011KT P6SM SCT030
     FM162100 19012KT P6SM VCTS BKN040CB=

USA.gov is the U.S. government's official web portal to all federal, state and local government web resources and services.